Aranspass, Texas
Current Conditions -  °F | °C
As of 4:55 PM on Saturday 20 Dec 2014 (Local Time) from KTFP Reporting Station
Overcast Overcast  
Wind Chill: 56°   Ceiling: 1500
Heat Index: 56°   Visibility: 10mi
Dew Point: 49°   Wind: 7mph
Humidity: 78%   Direction: 50°NE
Pressure: 30.14"   Gusts: NA
Location:  27.9399°N, 97.1805°W
Report Text: KTFP 202255Z AUTO 05006KT 10SM OVC015 13/10 A3014 RMK AO2 T01320095
Loading
Personal Weather Stations






























Interactive Weather Map New forecast layout! Learn more

10-Day Weather Forecast

Advertisements
Track Severe Weather on mobile